createdAt,value
2023-03-11T00:02:53.541Z,98236.88
2023-03-11T00:05:56.592Z,98235.88
2023-03-11T00:08:58.709Z,98225.09
2023-03-11T00:12:01.558Z,98233.34
2023-03-11T00:15:04.027Z,98215.38
2023-03-11T00:18:06.912Z,98206.22
2023-03-11T00:21:16.167Z,98209.50
2023-03-11T00:24:18.425Z,98208.22
2023-03-11T00:27:20.579Z,98202.06
2023-03-11T00:30:24.068Z,98214.84
2023-03-11T00:33:26.391Z,98234.38
2023-03-11T00:36:33.992Z,98209.22
2023-03-11T00:39:36.275Z,98214.84
2023-03-11T00:42:38.518Z,98209.53
2023-03-11T00:45:40.962Z,98218.53
2023-03-11T00:48:43.247Z,98221.19
2023-03-11T00:51:45.714Z,98220.72
2023-03-11T00:54:47.942Z,98210.22
2023-03-11T00:57:55.578Z,98216.31
2023-03-11T01:00:59.692Z,98226.78
2023-03-11T01:04:02.211Z,98236.19
2023-03-11T01:07:04.493Z,98218.41
2023-03-11T01:10:07.891Z,98217.97
2023-03-11T01:13:10.131Z,98214.50
2023-03-11T01:16:12.596Z,98212.78
2023-03-11T01:19:15.161Z,98218.06
2023-03-11T01:22:17.687Z,98211.53
2023-03-11T01:25:21.566Z,98221.34
2023-03-11T01:28:24.656Z,98209.69
2023-03-11T01:31:26.803Z,98203.09
2023-03-11T01:34:29.170Z,98202.50
2023-03-11T01:37:31.530Z,98206.59
2023-03-11T01:40:36.960Z,98206.00
2023-03-11T01:43:45.470Z,98201.03
2023-03-11T01:46:54.174Z,98209.16
2023-03-11T01:50:05.882Z,98207.81
2023-03-11T01:53:08.724Z,98196.69
2023-03-11T01:56:11.204Z,98210.91
2023-03-11T01:59:16.667Z,98210.91
2023-03-11T02:02:23.605Z,98216.66
2023-03-11T02:05:26.225Z,98221.47
2023-03-11T02:08:30.156Z,98228.25
2023-03-11T02:11:33.309Z,98225.78
2023-03-11T02:14:36.458Z,98237.72
2023-03-11T02:21:21.504Z,98225.44
2023-03-11T02:24:29.733Z,98219.03
2023-03-11T02:27:33.963Z,98222.94
2023-03-11T02:30:42.728Z,98223.28
2023-03-11T02:33:46.759Z,98226.09
2023-03-11T02:36:49.732Z,98222.16
2023-03-11T02:39:54.210Z,98213.53
2023-03-11T02:42:58.926Z,98227.38
2023-03-11T02:46:01.783Z,98218.81
2023-03-11T02:49:05.178Z,98227.06
2023-03-11T02:52:09.813Z,98225.16
2023-03-11T02:55:12.386Z,98226.13
2023-03-11T02:58:15.658Z,98229.78
2023-03-11T03:01:18.317Z,98244.53
2023-03-11T03:04:21.829Z,98246.44
2023-03-11T03:07:24.248Z,98253.63
2023-03-11T03:10:26.787Z,98255.59
2023-03-11T03:13:29.657Z,98253.84
2023-03-11T03:16:32.156Z,98253.56
2023-03-11T03:19:34.564Z,98268.63
2023-03-11T03:22:37.960Z,98277.16
2023-03-11T03:25:44.437Z,98265.69
2023-03-11T03:28:47.029Z,98291.09
2023-03-11T03:31:49.438Z,98280.66
2023-03-11T03:34:58.260Z,98271.97
2023-03-11T03:38:09.933Z,98279.63
2023-03-11T03:41:15.675Z,98299.53
2023-03-11T03:44:18.350Z,98261.31
2023-03-11T03:47:21.484Z,98284.84
2023-03-11T03:50:24.145Z,98285.50
2023-03-11T03:53:28.552Z,98297.69
2023-03-11T03:56:30.860Z,98310.25
2023-03-11T03:59:33.180Z,98283.78
2023-03-11T04:02:38.052Z,98315.84
2023-03-11T04:05:40.754Z,98306.78
2023-03-11T04:08:43.269Z,98320.16
2023-03-11T04:11:47.032Z,98330.97
2023-03-11T04:14:51.131Z,98331.66
2023-03-11T04:17:53.436Z,98340.44
2023-03-11T04:20:55.887Z,98366.09
2023-03-11T04:23:58.486Z,98361.47
2023-03-11T04:27:05.674Z,98360.59
2023-03-11T04:30:10.368Z,98363.22
2023-03-11T04:33:12.741Z,98362.41
2023-03-11T04:36:15.238Z,98378.53
2023-03-11T04:39:18.157Z,98383.50
2023-03-11T04:42:21.820Z,98374.03
2023-03-11T04:45:24.746Z,98366.09
2023-03-11T04:48:30.355Z,98358.75
2023-03-11T04:51:32.675Z,98365.22
2023-03-11T04:54:34.998Z,98378.06
2023-03-11T04:57:37.390Z,98399.78
2023-03-11T05:00:39.959Z,98408.56
2023-03-11T05:03:46.415Z,98412.59
2023-03-11T05:06:51.242Z,98417.75
2023-03-11T05:09:54.253Z,98363.66
2023-03-11T05:12:56.532Z,98415.44
2023-03-11T05:16:02.641Z,98414.59
2023-03-11T05:19:25.219Z,98417.34
2023-03-11T05:22:27.765Z,98417.50
2023-03-11T05:25:31.138Z,98414.16
2023-03-11T05:28:33.864Z,98413.63
2023-03-11T05:31:37.010Z,98435.03
2023-03-11T05:34:39.646Z,98437.94
2023-03-11T05:37:42.800Z,98456.88
2023-03-11T05:40:45.417Z,98461.19
2023-03-11T05:43:47.801Z,98462.69
2023-03-11T05:46:50.348Z,98463.53
2023-03-11T05:49:52.817Z,98451.03
2023-03-11T05:52:55.942Z,98467.41
2023-03-11T05:55:59.185Z,98464.78
2023-03-11T05:59:03.068Z,98474.38
2023-03-11T06:02:08.782Z,98463.22
2023-03-11T06:05:13.447Z,98477.41
2023-03-11T06:08:17.563Z,98474.63
2023-03-11T06:11:19.999Z,98469.47
2023-03-11T06:14:22.845Z,98482.16
2023-03-11T06:17:28.678Z,98495.06
2023-03-11T06:20:32.223Z,98482.66
2023-03-11T06:23:34.632Z,98496.28
2023-03-11T06:26:37.665Z,98509.06
2023-03-11T06:29:40.144Z,98533.56
2023-03-11T06:32:45.045Z,98529.09
2023-03-11T06:35:59.246Z,98537.19
2023-03-11T06:39:01.634Z,98535.00
2023-03-11T06:42:04.677Z,98528.16
2023-03-11T06:45:08.236Z,98549.75
2023-03-11T06:48:10.721Z,98552.50
2023-03-11T06:51:14.234Z,98556.28
2023-03-11T06:54:17.310Z,98548.19
2023-03-11T06:57:20.400Z,98560.56
2023-03-11T07:00:31.189Z,98567.22
2023-03-11T07:03:35.076Z,98560.97
2023-03-11T07:06:37.513Z,98553.69
2023-03-11T07:09:44.609Z,98564.44
2023-03-11T07:12:49.342Z,98564.16
2023-03-11T07:16:00.617Z,98555.53
2023-03-11T07:19:03.349Z,98557.47
2023-03-11T07:22:05.629Z,98543.06
2023-03-11T07:25:08.205Z,98573.19
2023-03-11T07:28:10.454Z,98575.41
2023-03-11T07:31:16.627Z,98581.50
2023-03-11T07:34:19.007Z,98568.53
2023-03-11T07:37:21.269Z,98586.13
2023-03-11T07:40:23.518Z,98577.19
2023-03-11T07:43:25.966Z,98572.19
2023-03-11T07:46:29.873Z,98565.00
2023-03-11T07:49:32.307Z,98566.69
2023-03-11T07:52:34.561Z,98576.66
2023-03-11T07:55:36.806Z,98593.41
2023-03-11T07:58:39.414Z,98595.09
2023-03-11T08:01:47.507Z,98616.78
2023-03-11T08:04:49.787Z,98631.31
2023-03-11T08:07:52.022Z,98620.25
2023-03-11T08:10:54.347Z,98611.47
2023-03-11T08:13:57.890Z,98631.03
2023-03-11T08:17:00.143Z,98628.22
2023-03-11T08:20:02.414Z,98619.91
2023-03-11T08:23:04.861Z,98683.22
2023-03-11T08:26:09.298Z,98679.34
2023-03-11T08:29:11.607Z,98653.31
2023-03-11T08:32:13.905Z,98657.44
2023-03-11T08:35:16.944Z,98682.06
2023-03-11T08:38:19.295Z,98693.47
2023-03-11T08:41:21.526Z,98703.09
2023-03-11T08:44:23.777Z,98696.81
2023-03-11T08:47:26.082Z,98717.31
2023-03-11T08:50:28.322Z,98686.28
2023-03-11T08:53:32.633Z,98705.38
2023-03-11T08:56:34.965Z,98687.38
2023-03-11T08:59:37.341Z,98695.66
2023-03-11T09:02:39.721Z,98624.31
2023-03-11T09:05:42.077Z,98670.44
2023-03-11T09:08:45.393Z,98647.34
2023-03-11T09:11:48.746Z,98612.00
2023-03-11T09:14:50.985Z,98666.56
2023-03-11T09:17:54.317Z,98650.97
2023-03-11T09:20:58.456Z,98673.00
2023-03-11T09:24:01.359Z,98649.34
2023-03-11T09:27:04.009Z,98658.78
2023-03-11T09:30:06.974Z,98667.22
2023-03-11T09:33:09.318Z,98682.97
2023-03-11T09:36:16.880Z,98677.50
2023-03-11T09:39:19.148Z,98674.03
2023-03-11T09:42:27.620Z,98683.19
2023-03-11T09:45:31.863Z,98680.75
2023-03-11T09:48:49.564Z,98684.22
2023-03-11T09:52:19.576Z,98676.25
2023-03-11T09:55:22.024Z,98664.69
2023-03-11T09:58:27.510Z,98665.16
2023-03-11T10:01:45.249Z,98680.47
2023-03-11T10:04:50.534Z,98645.72
2023-03-11T10:07:59.566Z,98656.53
2023-03-11T10:11:44.846Z,98683.88
2023-03-11T10:14:47.672Z,98693.94
2023-03-11T10:18:23.183Z,98688.41
2023-03-11T10:21:42.366Z,98691.66
2023-03-11T10:25:00.149Z,98711.69
2023-03-11T10:28:08.582Z,98711.63
2023-03-11T10:31:25.020Z,98698.88
2023-03-11T10:35:00.834Z,98719.03
2023-03-11T10:38:22.456Z,98760.47
2023-03-11T10:41:44.321Z,98742.31
2023-03-11T10:44:46.574Z,98765.72
2023-03-11T10:47:49.108Z,98771.00
2023-03-11T10:51:22.381Z,98769.38
2023-03-11T10:54:31.728Z,98790.34
2023-03-11T10:57:36.378Z,98790.56
2023-03-11T11:00:38.638Z,98779.50
2023-03-11T11:03:46.247Z,98795.69
2023-03-11T11:06:48.803Z,98796.97
2023-03-11T11:10:21.185Z,98800.09
2023-03-11T11:13:25.793Z,98773.03
2023-03-11T11:16:28.946Z,98804.13
2023-03-11T11:19:31.105Z,98795.91
2023-03-11T11:22:33.227Z,98799.81
2023-03-11T11:26:01.505Z,98816.94
2023-03-11T11:29:09.685Z,98831.06
2023-03-11T11:32:24.897Z,98816.22
2023-03-11T11:35:27.319Z,98813.38
2023-03-11T11:38:52.312Z,98836.81
2023-03-11T11:41:56.727Z,98826.31
2023-03-11T11:45:47.267Z,98812.25
2023-03-11T11:49:01.189Z,98839.34
2023-03-11T11:52:16.309Z,98819.94
2023-03-11T11:55:26.266Z,98833.00
2023-03-11T11:58:28.688Z,98820.31
2023-03-11T12:01:40.559Z,98822.53
2023-03-11T12:04:45.754Z,98815.78
2023-03-11T12:08:00.225Z,98828.69
2023-03-11T12:11:07.516Z,98819.97
2023-03-11T12:14:25.878Z,98808.47
2023-03-11T12:17:30.227Z,98812.72
2023-03-11T12:20:54.373Z,98831.44
2023-03-11T12:24:25.636Z,98818.53
2023-03-11T12:27:33.145Z,98772.53
2023-03-11T12:30:38.348Z,98836.91
2023-03-11T12:33:46.338Z,98822.16
2023-03-11T12:36:49.788Z,98845.81
2023-03-11T12:39:52.080Z,98837.16
2023-03-11T12:42:54.343Z,98842.75
2023-03-11T12:45:59.509Z,98872.19
2023-03-11T12:49:08.001Z,98850.63
2023-03-11T12:52:13.334Z,98892.03
2023-03-11T12:55:18.625Z,98889.84
2023-03-11T12:58:32.111Z,98898.22
2023-03-11T13:02:06.939Z,98841.06
2023-03-11T13:05:28.289Z,98888.81
2023-03-11T13:08:51.415Z,98915.13
2023-03-11T13:11:53.675Z,98900.34
2023-03-11T13:15:20.791Z,98929.47
2023-03-11T13:18:26.861Z,98926.00
2023-03-11T13:21:31.667Z,98924.09
2023-03-11T13:24:33.885Z,98919.31
2023-03-11T13:27:42.081Z,98949.69
2023-03-11T13:31:06.006Z,98945.09
2023-03-11T13:34:24.661Z,98914.03
2023-03-11T13:37:33.484Z,98951.81
2023-03-11T13:40:43.976Z,98918.19
2023-03-11T13:43:48.812Z,98975.22
2023-03-11T13:46:53.957Z,98980.91
2023-03-11T13:50:25.242Z,98973.94
2023-03-11T13:53:38.856Z,98993.47
2023-03-11T13:56:49.185Z,98988.72
2023-03-11T13:59:53.830Z,99003.31
2023-03-11T14:03:01.596Z,99008.38
2023-03-11T14:06:06.989Z,99002.75
2023-03-11T14:09:21.248Z,99009.09
2023-03-11T14:12:23.476Z,99028.31
2023-03-11T14:15:26.962Z,98991.09
2023-03-11T14:18:41.170Z,99012.22
2023-03-11T14:21:45.058Z,99000.94
2023-03-11T14:24:48.220Z,99042.47
2023-03-11T14:27:55.023Z,99029.63
2023-03-11T14:30:59.078Z,99026.75
2023-03-11T14:34:07.664Z,99058.78
2023-03-11T14:37:31.089Z,99071.25
2023-03-11T14:40:37.799Z,99076.06
2023-03-11T14:43:44.297Z,99078.47
2023-03-11T14:46:46.990Z,99068.38
2023-03-11T14:49:50.079Z,99065.97
2023-03-11T14:52:59.548Z,99077.97
2023-03-11T14:56:05.725Z,99064.78
2023-03-11T14:59:12.543Z,99098.59
2023-03-11T15:02:38.025Z,99095.00
2023-03-11T15:05:44.209Z,99110.84
2023-03-11T15:08:57.240Z,99124.03
2023-03-11T15:12:01.969Z,99114.44
2023-03-11T15:15:21.727Z,99104.59
2023-03-11T15:18:26.619Z,99137.66
2023-03-11T15:21:32.386Z,99135.88
2023-03-11T15:24:34.826Z,99138.00
2023-03-11T15:27:41.716Z,99144.88
2023-03-11T15:30:43.989Z,99135.44
2023-03-11T15:33:46.412Z,99140.31
2023-03-11T15:36:48.641Z,99156.56
2023-03-11T15:39:52.279Z,99159.31
2023-03-11T15:43:20.757Z,99165.66
2023-03-11T15:46:23.034Z,99174.75
2023-03-11T15:49:25.618Z,99173.63
2023-03-11T15:52:27.932Z,99182.59
2023-03-11T15:55:30.190Z,99194.66
2023-03-11T15:58:32.400Z,99202.63
2023-03-11T16:01:35.079Z,99208.22
2023-03-11T16:04:37.536Z,99206.34
2023-03-11T16:07:40.275Z,99200.88
2023-03-11T16:10:43.267Z,99221.41
2023-03-11T16:13:45.586Z,99219.63
2023-03-11T16:16:47.988Z,99200.56
2023-03-11T16:19:50.250Z,99214.81
2023-03-11T16:22:55.873Z,99209.78
2023-03-11T16:26:00.345Z,99227.47
2023-03-11T16:29:16.528Z,99231.50
2023-03-11T16:32:20.951Z,99243.72
2023-03-11T16:35:24.036Z,99243.28
2023-03-11T16:38:26.446Z,99250.25
2023-03-11T16:41:28.769Z,99243.94
2023-03-11T16:44:31.014Z,99259.19
2023-03-11T16:47:33.322Z,99282.78
2023-03-11T16:50:37.407Z,99287.22
2023-03-11T16:53:40.142Z,99295.22
2023-03-11T16:56:42.441Z,99321.03
2023-03-11T16:59:44.888Z,99310.06
2023-03-11T17:02:47.115Z,99328.19
2023-03-11T17:05:49.734Z,99313.44
2023-03-11T17:08:52.052Z,99334.47
2023-03-11T17:11:54.290Z,99332.59
2023-03-11T17:14:56.722Z,99355.41
2023-03-11T17:17:59.094Z,99344.38
2023-03-11T17:21:05.905Z,99356.94
2023-03-11T17:24:09.485Z,99369.66
2023-03-11T17:27:11.812Z,99383.16
2023-03-11T17:30:19.371Z,99380.53
2023-03-11T17:33:27.123Z,99397.84
2023-03-11T17:36:29.402Z,99406.72
2023-03-11T17:39:31.656Z,99421.03
2023-03-11T17:42:33.972Z,99415.03
2023-03-11T17:45:38.625Z,99418.00
2023-03-11T17:48:42.246Z,99422.47
2023-03-11T17:51:44.534Z,99429.97
2023-03-11T17:54:46.911Z,99413.09
2023-03-11T17:57:49.152Z,99429.22
2023-03-11T18:00:51.425Z,99436.50
2023-03-11T18:03:54.226Z,99434.31
2023-03-11T18:06:56.837Z,99445.03
2023-03-11T18:09:59.111Z,99456.50
2023-03-11T18:13:01.496Z,99455.47
2023-03-11T18:16:04.943Z,99447.09
2023-03-11T18:19:07.245Z,99463.72
2023-03-11T18:22:09.545Z,99454.25
2023-03-11T18:25:12.825Z,99480.31
2023-03-11T18:28:15.047Z,99484.97
2023-03-11T18:31:19.835Z,99472.09
2023-03-11T18:34:23.255Z,99483.13
2023-03-11T18:37:25.487Z,99487.72
2023-03-11T18:40:28.024Z,99493.16
2023-03-11T18:43:30.287Z,99506.72
2023-03-11T18:46:33.153Z,99513.56
2023-03-11T18:49:35.424Z,99519.56
2023-03-11T18:52:37.780Z,99512.81
2023-03-11T18:55:40.060Z,99495.34
2023-03-11T18:58:42.549Z,99522.50
2023-03-11T19:01:44.938Z,99513.56
2023-03-11T19:04:47.429Z,99524.34
2023-03-11T19:07:49.728Z,99527.09
2023-03-11T19:10:52.177Z,99525.38
2023-03-11T19:13:55.231Z,99537.91
2023-03-11T19:16:57.519Z,99531.97
2023-03-11T19:19:59.773Z,99534.69
2023-03-11T19:23:02.186Z,99532.53
2023-03-11T19:26:04.743Z,99540.50
2023-03-11T19:29:08.012Z,99548.09
2023-03-11T19:32:10.635Z,99556.00
2023-03-11T19:35:17.402Z,99559.34
2023-03-11T19:38:20.781Z,99553.25
2023-03-11T19:41:23.292Z,99557.84
2023-03-11T19:44:25.641Z,99574.28
2023-03-11T19:47:28.178Z,99559.34
2023-03-11T19:50:30.415Z,99571.38
2023-03-11T19:53:33.672Z,99569.50
2023-03-11T19:56:35.984Z,99592.16
2023-03-11T19:59:38.268Z,99586.34
2023-03-11T20:02:40.607Z,99574.34
2023-03-11T20:05:45.395Z,99574.69
2023-03-11T20:08:47.649Z,99563.31
2023-03-11T20:11:50.041Z,99554.94
2023-03-11T20:14:52.336Z,99555.25
2023-03-11T20:17:54.755Z,99559.59
2023-03-11T20:20:57.075Z,99562.22
2023-03-11T20:24:00.166Z,99567.47
2023-03-11T20:27:02.535Z,99574.19
2023-03-11T20:30:05.376Z,99555.81
2023-03-11T20:33:08.163Z,99545.78
2023-03-11T20:36:14.055Z,99567.78
2023-03-11T20:39:16.785Z,99575.91
2023-03-11T20:42:19.185Z,99578.22
2023-03-11T20:45:22.046Z,99577.75
2023-03-11T20:48:24.650Z,99582.59
2023-03-11T20:51:26.992Z,99591.34
2023-03-11T20:54:29.421Z,99599.03
2023-03-11T20:57:31.668Z,99591.16
2023-03-11T21:00:34.676Z,99614.88
2023-03-11T21:03:37.132Z,99603.78
2023-03-11T21:06:41.142Z,99608.94
2023-03-11T21:09:43.504Z,99608.25
2023-03-11T21:12:45.868Z,99615.03
2023-03-11T21:15:48.284Z,99605.38
2023-03-11T21:18:50.622Z,99621.56
2023-03-11T21:21:53.102Z,99625.53
2023-03-11T21:24:55.845Z,99627.56
2023-03-11T21:27:58.116Z,99647.00
2023-03-11T21:31:03.417Z,99645.66
2023-03-11T21:34:05.971Z,99647.78
2023-03-11T21:37:08.262Z,99646.00
2023-03-11T21:40:11.351Z,99652.81
2023-03-11T21:43:13.730Z,99648.34
2023-03-11T21:46:18.516Z,99646.81
2023-03-11T21:49:21.074Z,99652.75
2023-03-11T21:52:23.454Z,99662.56
2023-03-11T21:55:25.749Z,99638.50
2023-03-11T21:58:28.114Z,99653.91
2023-03-11T22:01:30.727Z,99648.06
2023-03-11T22:04:33.316Z,99660.84
2023-03-11T22:07:35.567Z,99674.59
2023-03-11T22:10:38.765Z,99676.03
2023-03-11T22:13:41.304Z,99684.59
2023-03-11T22:16:43.667Z,99688.00
2023-03-11T22:19:46.050Z,99696.78
2023-03-11T22:22:48.677Z,99707.16
2023-03-11T22:25:50.964Z,99695.78
2023-03-11T22:28:53.241Z,99690.56
2023-03-11T22:31:55.511Z,99686.44
2023-03-11T22:34:57.966Z,99683.06
2023-03-11T22:38:00.310Z,99694.03
2023-03-11T22:41:07.566Z,99721.28
2023-03-11T22:44:09.862Z,99725.84
2023-03-11T22:47:12.388Z,99736.56
2023-03-11T22:50:14.705Z,99741.59
2023-03-11T22:53:17.435Z,99748.78
2023-03-11T22:56:20.028Z,99758.16
2023-03-11T22:59:22.346Z,99757.50
2023-03-11T23:02:24.671Z,99756.09
2023-03-11T23:05:27.033Z,99754.47
2023-03-11T23:08:29.399Z,99749.75
2023-03-11T23:11:31.695Z,99764.72
2023-03-11T23:14:44.682Z,99767.59
2023-03-11T23:17:47.644Z,99756.94
2023-03-11T23:20:49.955Z,99771.13
2023-03-11T23:23:52.702Z,99775.06
2023-03-11T23:26:54.903Z,99787.06
2023-03-11T23:29:57.162Z,99783.84
2023-03-11T23:33:02.812Z,99781.69
2023-03-11T23:36:07.867Z,99785.72
2023-03-11T23:39:10.226Z,99779.91
2023-03-11T23:42:25.108Z,99794.00
2023-03-11T23:45:28.252Z,99796.50
2023-03-11T23:48:30.782Z,99805.13
2023-03-11T23:51:33.050Z,99808.91
2023-03-11T23:54:35.705Z,99812.44
2023-03-11T23:57:38.057Z,99812.75
